Time;durP1;ratioP1;P1;durP2;ratioP2;P2;SDS_P1;SDS_P2;PMS_P1;PMS_P2;Temp;Humidity;BMP_temperature;BMP_pressure;BME280_temperature;BME280_humidity;BME280_pressure;Samples;Min_cycle;Max_cycle;Signal;HPM_P1;HPM_P2
2021/03/09 00:01:26;;;;;;;6.10;3.95;;;8.70;60.60;;;;;;1977374;71;21073;-74
2021/03/09 00:03:53;;;;;;;8.03;4.20;;;8.70;61.10;;;;;;1971115;70;21571;-76
2021/03/09 00:06:20;;;;;;;9.53;4.25;;;8.70;62.00;;;;;;1982686;70;21082;-74
2021/03/09 00:08:48;;;;;;;9.48;4.17;;;8.70;62.00;;;;;;1979704;71;21176;-74
2021/03/09 00:11:15;;;;;;;11.60;3.77;;;8.70;61.40;;;;;;1978118;71;21069;-74
2021/03/09 00:13:43;;;;;;;7.30;3.67;;;8.70;62.00;;;;;;1978505;71;21058;-74
2021/03/09 00:16:11;;;;;;;7.47;3.77;;;8.70;61.30;;;;;;1982423;71;21662;-74
2021/03/09 00:18:38;;;;;;;11.05;3.72;;;8.60;61.50;;;;;;1982894;72;21652;-74
2021/03/09 00:21:06;;;;;;;8.03;4.20;;;8.60;61.90;;;;;;1987516;71;21099;-74
2021/03/09 00:23:33;;;;;;;9.25;4.30;;;8.50;62.00;;;;;;1981306;71;21211;-74
2021/03/09 00:26:01;;;;;;;10.85;4.15;;;8.60;62.40;;;;;;1984304;71;21062;-74
2021/03/09 00:28:28;;;;;;;8.73;4.75;;;8.50;62.20;;;;;;1978733;72;21207;-74
2021/03/09 00:30:56;;;;;;;8.55;4.67;;;8.50;62.80;;;;;;1978725;72;21429;-74
2021/03/09 00:33:23;;;;;;;8.15;4.00;;;8.40;62.80;;;;;;1976589;72;22151;-74
2021/03/09 00:35:51;;;;;;;9.95;4.55;;;8.40;63.20;;;;;;1983675;71;21071;-74
2021/03/09 00:38:18;;;;;;;7.40;4.30;;;8.40;64.20;;;;;;1977848;71;21105;-74
2021/03/09 00:40:46;;;;;;;8.28;4.65;;;8.30;64.70;;;;;;1978064;71;21081;-74
2021/03/09 00:43:13;;;;;;;8.00;4.55;;;8.40;64.80;;;;;;1983243;72;21546;-74
2021/03/09 00:45:41;;;;;;;11.03;4.58;;;8.40;65.40;;;;;;1979823;71;21077;-74
2021/03/09 00:48:08;;;;;;;9.35;5.60;;;8.30;66.70;;;;;;1976982;71;21648;-74
2021/03/09 00:50:36;;;;;;;11.25;5.85;;;8.00;69.50;;;;;;1981987;72;22184;-74
2021/03/09 00:53:03;;;;;;;11.70;6.17;;;7.80;71.10;;;;;;1977304;71;21127;-75
2021/03/09 00:55:31;;;;;;;12.80;7.78;;;7.80;72.70;;;;;;1981127;71;21058;-74
2021/03/09 00:58:00;;;;;;;12.45;7.30;;;7.80;75.40;;;;;;1978810;71;21066;-74
2021/03/09 01:00:29;;;;;;;14.68;8.00;;;7.70;77.80;;;;;;1974279;72;21220;-74
2021/03/09 01:02:57;;;;;;;18.48;9.60;;;7.50;80.20;;;;;;1979401;71;21328;-75
2021/03/09 01:05:25;;;;;;;11.73;8.50;;;7.50;82.40;;;;;;1975301;72;21461;-74
2021/03/09 01:07:53;;;;;;;17.30;9.40;;;7.50;84.00;;;;;;1980727;71;21218;-74
2021/03/09 01:10:22;;;;;;;16.00;9.13;;;7.30;85.60;;;;;;1977868;72;20999;-74
2021/03/09 01:12:49;;;;;;;18.50;9.60;;;7.20;88.00;;;;;;1979196;72;21151;-74
2021/03/09 01:15:17;;;;;;;18.90;9.55;;;7.20;88.90;;;;;;1978158;71;21038;-74
2021/03/09 01:17:45;;;;;;;17.70;9.38;;;7.30;90.00;;;;;;1977411;71;21531;-74
2021/03/09 01:20:13;;;;;;;15.78;9.00;;;7.20;90.40;;;;;;1977705;72;21018;-74
2021/03/09 01:22:40;;;;;;;14.80;8.90;;;7.30;90.80;;;;;;1984658;71;21085;-74
2021/03/09 01:25:09;;;;;;;13.62;8.73;;;7.20;91.30;;;;;;1984947;71;21070;-74
2021/03/09 01:27:37;;;;;;;16.25;9.20;;;7.10;91.60;;;;;;1980138;71;21226;-74
2021/03/09 01:30:07;;;;;;;15.65;9.23;;;7.10;92.50;;;;;;1979287;72;21054;-74
2021/03/09 01:32:35;;;;;;;18.40;10.28;;;7.10;93.00;;;;;;1979509;71;21093;-74
2021/03/09 01:35:03;;;;;;;21.65;10.68;;;7.10;93.30;;;;;;1977484;72;21183;-74
2021/03/09 01:37:31;;;;;;;18.27;10.05;;;7.00;94.10;;;;;;1978269;71;21210;-74
2021/03/09 01:39:59;;;;;;;19.25;10.55;;;7.10;94.60;;;;;;1983056;71;21137;-74
2021/03/09 01:42:27;;;;;;;17.62;10.23;;;7.00;95.20;;;;;;1980448;71;21129;-74
2021/03/09 01:44:54;;;;;;;16.97;10.00;;;7.00;95.70;;;;;;1980440;72;21094;-74
2021/03/09 01:47:22;;;;;;;18.02;11.10;;;7.10;96.20;;;;;;1977697;71;21651;-74
2021/03/09 01:49:49;;;;;;;20.57;11.20;;;7.10;96.60;;;;;;1980394;71;21633;-74
2021/03/09 01:52:17;;;;;;;17.40;10.80;;;7.00;97.10;;;;;;1981272;71;21194;-74
2021/03/09 01:54:45;;;;;;;18.35;10.80;;;7.00;97.80;;;;;;1975616;71;21018;-74
2021/03/09 01:57:12;;;;;;;18.12;11.03;;;7.00;98.20;;;;;;1980626;71;21121;-74
2021/03/09 01:59:41;;;;;;;17.92;10.70;;;7.00;98.70;;;;;;1981125;71;21413;-74
2021/03/09 02:02:09;;;;;;;17.57;11.22;;;6.80;99.20;;;;;;1976226;72;21050;-74
2021/03/09 02:04:37;;;;;;;23.10;11.57;;;6.70;99.90;;;;;;1978694;71;21109;-74
2021/03/09 02:07:04;;;;;;;19.27;12.00;;;6.70;99.90;;;;;;1979911;71;21101;-74
2021/03/09 02:09:32;;;;;;;17.32;10.98;;;6.60;99.90;;;;;;1981423;71;21038;-74
2021/03/09 02:12:02;;;;;;;24.60;11.65;;;6.60;99.90;;;;;;1982115;72;21085;-74
2021/03/09 02:14:57;;;;;;;20.97;12.60;;;6.60;99.90;;;;;;1977200;71;21233;-74
2021/03/09 02:17:28;;;;;;;20.35;12.40;;;6.70;99.90;;;;;;1977692;71;21111;-75
2021/03/09 02:20:32;;;;;;;19.37;12.50;;;6.60;99.90;;;;;;1978419;71;21105;-73
2021/03/09 02:23:26;;;;;;;18.02;11.83;;;6.60;99.90;;;;;;1981993;72;21027;-73
2021/03/09 02:26:17;;;;;;;19.67;12.47;;;6.50;99.90;;;;;;1984323;71;21116;-74
2021/03/09 02:28:51;;;;;;;16.10;11.25;;;6.40;99.90;;;;;;1981127;72;21526;-74
2021/03/09 02:31:19;;;;;;;21.07;12.33;;;6.40;99.90;;;;;;1977857;72;21046;-74
2021/03/09 02:33:58;;;;;;;21.05;13.15;;;6.40;99.90;;;;;;1981371;71;21445;-74
2021/03/09 02:36:28;;;;;;;21.27;12.88;;;6.50;99.90;;;;;;1978312;71;21192;-74
2021/03/09 02:39:04;;;;;;;21.62;13.30;;;6.60;99.90;;;;;;1983401;71;21117;-74
2021/03/09 02:41:34;;;;;;;18.70;13.25;;;6.60;99.90;;;;;;1975597;72;21142;-74
2021/03/09 02:44:04;;;;;;;22.52;13.70;;;6.60;99.90;;;;;;1978486;71;21675;-73
2021/03/09 02:46:34;;;;;;;19.30;13.05;;;6.60;99.90;;;;;;1976853;71;21552;-73
2021/03/09 02:49:02;;;;;;;24.72;14.40;;;6.60;99.90;;;;;;1980449;71;21596;-73
2021/03/09 02:51:32;;;;;;;19.60;12.80;;;6.50;99.90;;;;;;1984211;71;21120;-73
2021/03/09 02:54:01;;;;;;;21.52;13.25;;;6.50;99.90;;;;;;1981486;71;21070;-73
2021/03/09 02:56:28;;;;;;;21.80;13.18;;;6.50;99.90;;;;;;1979983;71;21596;-73
2021/03/09 02:58:57;;;;;;;24.30;12.30;;;6.50;99.90;;;;;;1976983;71;21898;-73
2021/03/09 03:01:29;;;;;;;23.85;13.50;;;6.50;99.90;;;;;;1980911;72;21226;-73
2021/03/09 03:03:56;;;;;;;20.70;12.78;;;6.60;99.90;;;;;;1978519;72;21100;-73
2021/03/09 03:06:25;;;;;;;19.10;12.70;;;6.60;99.90;;;;;;1978198;71;21549;-73
2021/03/09 03:08:54;;;;;;;22.22;13.60;;;6.50;99.90;;;;;;1982077;71;21074;-73
2021/03/09 03:11:23;;;;;;;22.60;13.45;;;6.40;99.90;;;;;;1982756;71;21069;-74
2021/03/09 03:13:53;;;;;;;25.88;14.15;;;6.40;99.90;;;;;;1978341;71;21583;-73
2021/03/09 03:16:22;;;;;;;25.05;14.28;;;6.40;99.90;;;;;;1978574;71;21073;-73
2021/03/09 03:18:50;;;;;;;20.05;13.48;;;6.40;99.90;;;;;;1987141;72;21065;-73
2021/03/09 03:21:18;;;;;;;21.20;13.45;;;6.40;99.90;;;;;;1981220;72;21131;-73
2021/03/09 03:23:46;;;;;;;22.87;13.53;;;6.40;99.90;;;;;;1979235;71;21125;-73
2021/03/09 03:26:15;;;;;;;24.65;13.72;;;6.40;99.90;;;;;;1976955;71;21091;-73
2021/03/09 03:28:45;;;;;;;17.87;12.82;;;6.40;99.90;;;;;;1979215;72;21105;-73
2021/03/09 03:31:15;;;;;;;21.15;12.68;;;6.40;99.90;;;;;;1980580;72;21053;-72
2021/03/09 03:33:43;;;;;;;22.30;13.53;;;6.20;99.90;;;;;;1981194;72;21120;-72
2021/03/09 03:36:10;;;;;;;19.95;13.75;;;6.20;99.90;;;;;;1981271;72;21315;-72
2021/03/09 03:38:40;;;;;;;20.95;13.10;;;6.20;99.90;;;;;;1979370;72;21053;-73
2021/03/09 03:41:10;;;;;;;21.82;14.00;;;6.20;99.90;;;;;;1982824;71;21070;-73
2021/03/09 03:43:38;;;;;;;23.40;13.78;;;6.20;99.90;;;;;;1978530;71;21090;-73
2021/03/09 03:46:07;;;;;;;22.95;14.30;;;6.10;99.90;;;;;;1980714;71;21538;-72
2021/03/09 03:48:36;;;;;;;22.13;13.85;;;6.10;99.90;;;;;;1977011;72;21077;-73
2021/03/09 03:51:09;;;;;;;23.40;14.23;;;6.10;99.90;;;;;;1976015;71;21139;-73
2021/03/09 03:54:09;;;;;;;24.12;14.20;;;6.10;99.90;;;;;;1981859;71;21185;-73
2021/03/09 03:56:54;;;;;;;26.95;15.08;;;6.00;99.90;;;;;;1982796;71;22471;-73
2021/03/09 03:59:26;;;;;;;23.02;14.75;;;6.00;99.90;;;;;;1909033;70;21149;-73
2021/03/09 04:01:54;;;;;;;;;;;6.00;99.90;;;;;;1885584;74;21747;-73
2021/03/09 04:04:25;;;;;;;24.77;15.32;;;6.10;99.90;;;;;;1881977;74;20789;-73
2021/03/09 04:06:55;;;;;;;29.05;16.27;;;6.10;99.90;;;;;;1886107;74;21586;-73
2021/03/09 04:09:24;;;;;;;27.35;17.02;;;6.00;99.90;;;;;;1878789;74;21206;-74
2021/03/09 04:11:54;;;;;;;23.90;16.17;;;6.00;99.90;;;;;;1870952;74;21156;-74
2021/03/09 04:14:22;;;;;;;25.70;16.93;;;6.00;99.90;;;;;;1876416;74;21101;-73
2021/03/09 04:16:53;;;;;;;29.52;17.17;;;5.80;99.90;;;;;;1874249;74;21217;-74
2021/03/09 04:19:22;;;;;;;30.20;17.10;;;5.70;99.90;;;;;;1877868;74;21230;-74
2021/03/09 04:21:50;;;;;;;26.82;16.60;;;5.60;99.90;;;;;;1873918;74;21191;-74
2021/03/09 04:24:18;;;;;;;27.42;16.95;;;5.60;99.90;;;;;;1877252;74;21190;-74
2021/03/09 04:26:47;;;;;;;25.35;16.40;;;5.70;99.90;;;;;;1875824;74;21124;-74
2021/03/09 04:29:16;;;;;;;29.55;16.70;;;5.70;99.90;;;;;;1880494;74;21098;-74
2021/03/09 04:31:44;;;;;;;25.90;16.20;;;5.70;99.90;;;;;;1875999;74;21292;-74
2021/03/09 04:34:12;;;;;;;27.10;16.27;;;5.70;99.90;;;;;;1877909;74;21586;-74
2021/03/09 04:36:42;;;;;;;29.27;16.60;;;5.70;99.90;;;;;;1872796;74;21194;-74
2021/03/09 04:39:11;;;;;;;28.67;16.12;;;5.70;99.90;;;;;;1883980;74;21148;-74
2021/03/09 04:41:39;;;;;;;28.20;16.57;;;5.70;99.90;;;;;;1870668;74;21112;-74
2021/03/09 04:44:07;;;;;;;26.50;15.98;;;5.70;99.90;;;;;;1875923;74;21046;-74
2021/03/09 04:46:36;;;;;;;22.52;14.60;;;5.70;99.90;;;;;;1867148;74;21124;-74
2021/03/09 04:49:05;;;;;;;25.15;15.72;;;5.70;99.90;;;;;;1876121;74;21261;-74
2021/03/09 04:51:36;;;;;;;26.37;15.53;;;5.60;99.90;;;;;;1875205;74;21077;-73
2021/03/09 04:54:03;;;;;;;26.82;15.28;;;5.60;99.90;;;;;;1874006;74;22215;-74
2021/03/09 04:56:33;;;;;;;23.10;14.55;;;5.60;99.90;;;;;;1874151;74;21117;-73
2021/03/09 04:59:01;;;;;;;21.02;13.60;;;5.50;99.90;;;;;;1876376;74;21070;-74
2021/03/09 05:01:28;;;;;;;22.05;13.72;;;5.60;99.90;;;;;;1878991;74;21180;-73
2021/03/09 05:03:57;;;;;;;24.27;14.40;;;5.50;99.90;;;;;;1872233;74;21718;-72
2021/03/09 05:06:24;;;;;;;23.98;14.75;;;5.50;99.90;;;;;;1878262;74;21206;-74
2021/03/09 05:08:51;;;;;;;21.55;14.40;;;5.60;99.90;;;;;;1871048;74;21649;-74
2021/03/09 05:11:19;;;;;;;22.37;13.90;;;5.60;99.90;;;;;;1876508;74;21125;-75
2021/03/09 05:13:46;;;;;;;19.90;13.60;;;5.60;99.90;;;;;;1878859;74;21098;-74
2021/03/09 05:16:14;;;;;;;21.80;14.13;;;5.60;99.90;;;;;;1878303;74;21190;-74
2021/03/09 05:18:41;;;;;;;21.10;13.48;;;5.60;99.90;;;;;;1872825;74;21156;-74
2021/03/09 05:21:10;;;;;;;21.17;14.30;;;5.60;99.90;;;;;;1876315;74;21179;-74
2021/03/09 05:23:37;;;;;;;18.20;13.00;;;5.70;99.90;;;;;;1876160;74;21675;-74
2021/03/09 05:26:05;;;;;;;20.80;14.80;;;5.70;99.90;;;;;;1882349;74;21186;-74
2021/03/09 05:28:32;;;;;;;18.23;13.48;;;5.70;99.90;;;;;;1883869;74;21138;-74
2021/03/09 05:31:01;;;;;;;17.82;13.58;;;5.60;99.90;;;;;;1881210;74;21155;-74
2021/03/09 05:33:29;;;;;;;20.40;13.13;;;5.70;99.90;;;;;;1880158;74;21232;-73
2021/03/09 05:35:56;;;;;;;17.32;12.93;;;5.70;99.90;;;;;;1878572;74;21037;-73
2021/03/09 05:38:24;;;;;;;20.35;13.20;;;5.70;99.90;;;;;;1868908;74;21132;-73
2021/03/09 05:40:53;;;;;;;18.25;13.50;;;5.70;99.90;;;;;;1875786;74;21582;-73
2021/03/09 05:43:21;;;;;;;18.37;12.58;;;5.70;99.90;;;;;;1868919;74;21085;-73
2021/03/09 05:45:49;;;;;;;16.57;11.88;;;5.60;99.90;;;;;;1877441;74;21724;-75
2021/03/09 05:48:16;;;;;;;16.42;11.25;;;5.60;99.90;;;;;;1874564;76;21148;-75
2021/03/09 05:50:44;;;;;;;18.23;11.88;;;5.70;99.90;;;;;;1878406;74;21127;-75
2021/03/09 05:53:11;;;;;;;17.42;11.35;;;5.60;99.90;;;;;;1884934;74;21127;-75
2021/03/09 05:55:39;;;;;;;15.65;11.15;;;5.70;99.90;;;;;;1879425;74;21002;-76
2021/03/09 05:58:06;;;;;;;16.70;11.05;;;5.80;99.90;;;;;;1879103;74;21093;-76
2021/03/09 06:00:34;;;;;;;15.58;10.90;;;5.90;99.90;;;;;;1882799;74;21136;-76
2021/03/09 06:03:02;;;;;;;15.70;11.20;;;5.80;99.90;;;;;;1875310;74;21116;-74
2021/03/09 06:05:30;;;;;;;17.32;10.93;;;5.80;99.90;;;;;;1872520;74;21055;-74
2021/03/09 06:07:59;;;;;;;14.13;11.10;;;5.80;99.90;;;;;;1877373;74;21705;-76
2021/03/09 06:10:26;;;;;;;14.20;10.50;;;5.70;99.90;;;;;;1884073;74;21214;-72
2021/03/09 06:12:54;;;;;;;13.70;10.63;;;5.70;99.90;;;;;;1885552;74;21097;-73
2021/03/09 06:15:22;;;;;;;16.73;11.03;;;5.70;99.90;;;;;;1881474;74;21098;-73
2021/03/09 06:17:55;;;;;;;16.42;10.90;;;5.70;99.90;;;;;;1882660;74;21160;-72
2021/03/09 06:20:24;;;;;;;13.95;10.70;;;5.70;99.90;;;;;;1873777;75;21174;-74
2021/03/09 06:22:56;;;;;;;14.50;11.03;;;5.80;99.90;;;;;;1878203;74;21183;-72
2021/03/09 06:25:27;;;;;;;15.18;10.70;;;5.70;99.90;;;;;;1875312;74;22496;-74
2021/03/09 06:27:57;;;;;;;16.62;11.25;;;5.80;99.90;;;;;;1883443;74;21141;-73
2021/03/09 06:30:31;;;;;;;15.15;11.05;;;5.90;99.90;;;;;;1864671;74;21117;-74
2021/03/09 06:32:59;;;;;;;14.10;10.40;;;5.90;99.90;;;;;;1882580;74;21163;-75
2021/03/09 06:35:32;;;;;;;14.58;11.53;;;5.80;99.90;;;;;;1873492;74;21535;-76
2021/03/09 06:38:32;;;;;;;14.53;10.78;;;5.80;99.90;;;;;;1874069;74;21211;-75
2021/03/09 06:41:15;;;;;;;15.48;11.12;;;5.70;99.90;;;;;;1881218;74;21131;-75
2021/03/09 06:43:45;;;;;;;14.30;11.20;;;5.70;99.90;;;;;;1872782;75;21058;-75
2021/03/09 06:46:20;;;;;;;14.85;10.75;;;5.70;99.90;;;;;;1884385;74;21117;-73
2021/03/09 06:48:53;;;;;;;15.80;11.55;;;5.80;99.90;;;;;;1877793;76;21176;-73
2021/03/09 06:51:32;;;;;;;14.90;10.58;;;5.80;99.90;;;;;;1871914;74;21231;-73
2021/03/09 06:54:11;;;;;;;15.58;10.93;;;5.60;99.90;;;;;;1865875;74;21117;-72
2021/03/09 06:56:41;;;;;;;14.35;10.80;;;5.70;99.90;;;;;;1870296;75;21201;-72
2021/03/09 06:59:26;;;;;;;14.53;10.68;;;5.70;99.90;;;;;;1885330;74;21148;-73
2021/03/09 07:02:14;;;;;;;14.43;10.68;;;5.80;99.90;;;;;;1881475;74;21186;-73
2021/03/09 07:04:43;;;;;;;13.03;10.38;;;5.70;99.90;;;;;;1869788;76;21186;-73
2021/03/09 07:07:14;;;;;;;13.38;10.45;;;5.80;99.90;;;;;;1869003;76;21202;-72
2021/03/09 07:10:01;;;;;;;15.10;10.65;;;5.80;99.90;;;;;;1868646;76;21109;-73
2021/03/09 07:12:29;;;;;;;14.53;10.30;;;5.70;99.90;;;;;;1879953;74;21117;-74
2021/03/09 07:14:57;;;;;;;14.47;10.68;;;5.80;99.90;;;;;;1879682;74;21682;-73
2021/03/09 07:17:28;;;;;;;14.23;10.55;;;5.90;99.90;;;;;;1883946;74;21022;-73
2021/03/09 07:19:56;;;;;;;13.03;9.88;;;5.90;99.90;;;;;;1885121;74;21089;-72
2021/03/09 07:22:25;;;;;;;16.10;11.05;;;6.00;99.90;;;;;;1876143;74;21120;-72
2021/03/09 07:25:14;;;;;;;16.67;11.08;;;5.90;99.90;;;;;;1882418;74;22172;-73
2021/03/09 07:27:53;;;;;;;17.67;13.40;;;5.90;99.90;;;;;;1877638;74;21425;-73
2021/03/09 07:30:21;;;;;;;;;;;5.90;99.90;;;;;;1887470;74;21547;-72
2021/03/09 07:32:55;;;;;;;13.72;10.63;;;5.90;99.90;;;;;;1874174;74;20658;-73
2021/03/09 07:35:24;;;;;;;13.85;10.53;;;6.00;99.90;;;;;;1880545;74;21571;-73
2021/03/09 07:37:53;;;;;;;13.32;10.72;;;6.00;99.90;;;;;;1880011;74;21105;-73
2021/03/09 07:40:23;;;;;;;12.60;10.03;;;6.00;99.90;;;;;;1890542;74;21216;-73
2021/03/09 07:42:51;;;;;;;14.47;10.88;;;6.00;99.90;;;;;;1888615;74;21061;-73
2021/03/09 07:45:21;;;;;;;13.10;9.63;;;6.00;99.90;;;;;;1883981;74;21117;-74
2021/03/09 07:48:00;;;;;;;15.03;11.18;;;6.00;99.90;;;;;;1879450;74;21058;-73
2021/03/09 07:50:36;;;;;;;14.23;10.95;;;5.80;99.90;;;;;;1860298;74;21097;-73
2021/03/09 07:53:08;;;;;;;16.52;11.03;;;5.90;99.90;;;;;;1875968;74;21230;-73
2021/03/09 07:55:38;;;;;;;16.15;11.50;;;5.90;99.90;;;;;;1878439;74;22166;-73
2021/03/09 07:58:21;;;;;;;14.90;11.15;;;5.90;99.90;;;;;;1882452;74;21258;-73
2021/03/09 08:01:03;;;;;;;16.45;11.48;;;5.90;99.90;;;;;;1885405;74;21152;-74
2021/03/09 08:03:36;;;;;;;15.08;11.10;;;5.90;99.90;;;;;;1889267;74;21168;-73
2021/03/09 08:06:06;;;;;;;15.75;11.20;;;5.90;99.90;;;;;;1880586;74;21110;-73
2021/03/09 08:08:50;;;;;;;15.28;10.58;;;5.90;99.90;;;;;;1883292;74;21117;-74
2021/03/09 08:11:24;;;;;;;16.82;11.28;;;6.00;99.90;;;;;;1882258;74;21104;-74
2021/03/09 08:14:07;;;;;;;16.25;11.25;;;5.90;99.90;;;;;;1880333;74;21174;-72
2021/03/09 08:16:41;;;;;;;12.93;10.55;;;5.90;99.90;;;;;;1883649;74;21130;-73
2021/03/09 08:19:11;;;;;;;16.35;11.75;;;5.90;99.90;;;;;;1883704;74;21222;-73
2021/03/09 08:21:50;;;;;;;14.55;10.82;;;5.90;99.90;;;;;;1874207;74;21920;-73
2021/03/09 08:24:20;;;;;;;13.83;10.43;;;5.80;99.90;;;;;;1884913;74;21065;-74
2021/03/09 08:26:49;;;;;;;15.08;10.68;;;5.90;99.90;;;;;;1877373;74;21199;-73
2021/03/09 08:29:32;;;;;;;15.00;11.22;;;5.90;99.90;;;;;;1889275;74;21108;-72
2021/03/09 08:32:26;;;;;;;15.28;10.93;;;5.90;99.90;;;;;;1887582;74;21168;-72
2021/03/09 08:35:16;;;;;;;14.85;10.90;;;5.90;99.90;;;;;;1881469;74;21194;-73
2021/03/09 08:37:49;;;;;;;20.75;11.30;;;6.00;99.90;;;;;;1885979;74;21162;-73
2021/03/09 08:40:21;;;;;;;14.45;11.25;;;6.00;99.90;;;;;;1890626;74;21094;-73
2021/03/09 08:43:09;;;;;;;13.78;10.28;;;6.00;99.90;;;;;;1885621;74;21184;-72
2021/03/09 08:45:38;;;;;;;14.65;11.10;;;6.10;99.90;;;;;;1889406;74;21163;-72
2021/03/09 08:48:08;;;;;;;16.70;11.68;;;6.10;99.90;;;;;;1889345;73;21212;-72
2021/03/09 08:50:49;;;;;;;16.05;11.18;;;6.10;99.90;;;;;;1892767;74;21230;-71
2021/03/09 08:53:34;;;;;;;15.50;11.15;;;6.10;99.90;;;;;;1893460;74;21093;-71
2021/03/09 08:56:06;;;;;;;16.10;11.20;;;6.10;99.90;;;;;;1891379;74;21113;-73
2021/03/09 08:58:35;;;;;;;14.28;11.18;;;6.10;99.90;;;;;;1891950;74;21714;-74
2021/03/09 09:01:04;;;;;;;14.65;10.38;;;6.10;99.90;;;;;;1888659;74;21227;-74
2021/03/09 09:03:36;;;;;;;14.70;10.70;;;6.20;99.90;;;;;;1888032;74;21170;-73
2021/03/09 09:06:05;;;;;;;14.58;11.33;;;6.30;99.90;;;;;;1890877;74;21147;-74
2021/03/09 09:08:33;;;;;;;15.03;10.93;;;6.30;99.90;;;;;;1891604;74;21147;-75
2021/03/09 09:11:01;;;;;;;15.63;11.25;;;6.30;99.90;;;;;;1896622;73;21034;-74
2021/03/09 09:13:37;;;;;;;13.10;11.12;;;6.30;99.90;;;;;;1895687;73;21526;-74
2021/03/09 09:16:17;;;;;;;13.45;10.75;;;6.30;99.90;;;;;;1888806;74;21189;-72
2021/03/09 09:18:44;;;;;;;14.28;11.65;;;6.30;99.90;;;;;;1891207;74;21186;-72
2021/03/09 09:21:12;;;;;;;15.93;11.10;;;6.30;99.90;;;;;;1886560;74;21108;-72
2021/03/09 09:23:39;;;;;;;14.58;10.70;;;6.30;99.90;;;;;;1871636;76;21128;-72
2021/03/09 09:26:10;;;;;;;14.00;11.03;;;6.40;99.90;;;;;;1872097;76;21232;-72
2021/03/09 09:28:38;;;;;;;14.50;11.00;;;6.40;99.90;;;;;;1874112;74;21212;-72
2021/03/09 09:31:19;;;;;;;12.98;10.72;;;6.40;99.90;;;;;;1882870;74;21078;-72
2021/03/09 09:33:55;;;;;;;15.85;11.50;;;6.30;99.90;;;;;;1872579;75;21657;-71
2021/03/09 09:36:25;;;;;;;15.35;11.28;;;6.30;99.90;;;;;;1874977;74;21105;-72
2021/03/09 09:38:55;;;;;;;14.47;11.65;;;6.30;99.90;;;;;;1875406;74;21120;-71
2021/03/09 09:41:23;;;;;;;15.32;11.88;;;6.40;99.90;;;;;;1876186;74;21179;-73
2021/03/09 09:43:51;;;;;;;16.05;12.00;;;6.40;99.90;;;;;;1870254;76;21194;-71
2021/03/09 09:46:28;;;;;;;16.60;12.90;;;6.40;99.90;;;;;;1876690;74;21598;-71
2021/03/09 09:48:57;;;;;;;16.15;12.07;;;6.30;99.90;;;;;;1871199;75;21594;-71
2021/03/09 09:51:26;;;;;;;15.53;11.93;;;6.30;99.90;;;;;;1870825;74;21112;-72
2021/03/09 09:53:55;;;;;;;17.02;12.13;;;6.30;99.90;;;;;;1875143;75;21163;-72
2021/03/09 09:56:26;;;;;;;15.28;12.40;;;6.40;99.90;;;;;;1874324;74;21563;-75
2021/03/09 09:59:00;;;;;;;17.82;12.70;;;6.40;99.90;;;;;;1881041;74;21215;-72
2021/03/09 10:01:38;;;;;;;19.65;12.55;;;6.30;99.90;;;;;;1871647;74;21383;-73
2021/03/09 10:04:09;;;;;;;16.23;12.75;;;6.40;99.90;;;;;;1883421;72;21158;-73
2021/03/09 10:06:44;;;;;;;16.85;12.88;;;6.40;99.90;;;;;;1880977;73;21171;-71
2021/03/09 10:09:19;;;;;;;17.10;13.65;;;6.40;99.90;;;;;;1877204;74;21543;-71
2021/03/09 10:11:57;;;;;;;18.57;13.25;;;6.30;99.90;;;;;;1876845;74;21100;-72
2021/03/09 10:14:28;;;;;;;19.30;13.88;;;6.40;99.90;;;;;;1882611;74;21200;-73
2021/03/09 10:16:56;;;;;;;17.07;13.38;;;6.40;99.90;;;;;;1883120;74;21041;-72
2021/03/09 10:19:24;;;;;;;17.70;13.93;;;6.40;99.90;;;;;;1879557;74;21176;-73
2021/03/09 10:21:57;;;;;;;16.95;14.07;;;6.50;99.90;;;;;;1871895;74;21136;-72
2021/03/09 10:24:29;;;;;;;20.45;14.38;;;6.60;99.90;;;;;;1876737;74;21077;-73
2021/03/09 10:26:57;;;;;;;21.05;14.25;;;6.50;99.90;;;;;;1875341;74;21139;-72
2021/03/09 10:29:26;;;;;;;21.93;14.05;;;6.50;99.90;;;;;;1883570;74;21163;-71
2021/03/09 10:31:59;;;;;;;19.05;14.35;;;6.50;99.90;;;;;;1884506;74;21127;-73
2021/03/09 10:34:41;;;;;;;20.57;15.95;;;6.50;99.90;;;;;;1877900;74;21144;-72
2021/03/09 10:37:12;;;;;;;16.82;11.83;;;6.50;99.90;;;;;;1875829;76;21046;-75
2021/03/09 10:39:54;;;;;;;18.85;14.30;;;6.50;99.90;;;;;;1870810;76;21132;-74
2021/03/09 10:42:28;;;;;;;18.48;13.68;;;6.50;99.90;;;;;;1883004;74;21057;-74
2021/03/09 10:44:58;;;;;;;19.20;14.58;;;6.60;99.90;;;;;;1880197;74;21125;-73
2021/03/09 10:47:26;;;;;;;19.30;14.95;;;6.50;99.90;;;;;;1881880;74;22176;-73
2021/03/09 10:49:53;;;;;;;20.12;15.53;;;6.50;99.90;;;;;;1873915;74;21570;-72
2021/03/09 10:52:21;;;;;;;19.48;14.28;;;6.60;99.90;;;;;;1872790;76;21062;-72
2021/03/09 10:54:48;;;;;;;19.62;14.90;;;6.60;99.90;;;;;;1874719;74;21242;-73
2021/03/09 10:57:16;;;;;;;20.25;15.40;;;6.70;99.90;;;;;;1875924;76;21088;-72
2021/03/09 10:59:43;;;;;;;20.48;15.32;;;6.70;99.90;;;;;;1880805;74;22125;-72
2021/03/09 11:02:11;;;;;;;20.85;15.05;;;6.60;99.90;;;;;;1875922;74;21061;-74
2021/03/09 11:04:38;;;;;;;19.50;14.75;;;6.60;99.90;;;;;;1876981;74;21086;-73
2021/03/09 11:07:06;;;;;;;20.80;15.05;;;6.60;99.90;;;;;;1876676;74;21450;-72
2021/03/09 11:09:33;;;;;;;21.87;15.43;;;6.70;99.90;;;;;;1871983;76;21715;-72
2021/03/09 11:12:01;;;;;;;19.98;15.03;;;6.70;99.90;;;;;;1870605;74;21136;-72
2021/03/09 11:14:29;;;;;;;21.60;15.38;;;6.70;99.90;;;;;;1869086;76;21113;-74
2021/03/09 11:16:56;;;;;;;21.25;16.20;;;6.70;99.90;;;;;;1875125;75;21668;-74
2021/03/09 11:19:24;;;;;;;20.45;16.05;;;6.70;99.90;;;;;;1876469;74;21207;-74
2021/03/09 11:21:51;;;;;;;21.85;15.58;;;6.70;99.90;;;;;;1869390;76;21163;-75
2021/03/09 11:24:19;;;;;;;20.90;15.53;;;6.80;99.90;;;;;;1880483;74;21839;-74
2021/03/09 11:26:46;;;;;;;21.70;16.20;;;6.80;99.90;;;;;;1871622;74;21097;-73
2021/03/09 11:29:14;;;;;;;22.25;17.15;;;6.80;99.90;;;;;;1881130;74;21121;-74
2021/03/09 11:31:42;;;;;;;23.62;16.95;;;6.70;99.90;;;;;;1873149;74;21210;-74
2021/03/09 11:34:09;;;;;;;22.77;17.00;;;6.80;99.90;;;;;;1872154;76;21198;-74
2021/03/09 11:36:37;;;;;;;23.67;17.27;;;6.70;99.90;;;;;;1877809;74;21085;-74
2021/03/09 11:39:04;;;;;;;22.32;16.55;;;6.70;99.90;;;;;;1870292;74;21677;-75
2021/03/09 11:41:32;;;;;;;21.60;16.10;;;6.70;99.90;;;;;;1870433;74;21093;-75
2021/03/09 11:43:59;;;;;;;23.45;17.32;;;6.80;99.90;;;;;;1873842;74;21599;-74
2021/03/09 11:46:27;;;;;;;23.65;16.93;;;6.80;99.90;;;;;;1871411;75;21097;-74
2021/03/09 11:48:54;;;;;;;22.85;17.55;;;6.80;99.90;;;;;;1872552;74;21187;-74
2021/03/09 11:51:22;;;;;;;21.73;16.70;;;6.80;99.90;;;;;;1881613;74;21092;-74
2021/03/09 11:53:49;;;;;;;22.52;15.93;;;6.90;99.90;;;;;;1870973;74;21116;-74
2021/03/09 11:56:17;;;;;;;23.35;17.07;;;6.90;99.90;;;;;;1875301;74;21515;-74
2021/03/09 11:58:44;;;;;;;22.95;16.10;;;7.00;99.90;;;;;;1876684;74;21199;-74
2021/03/09 12:01:12;;;;;;;23.80;17.20;;;6.80;99.90;;;;;;1872440;76;21080;-76
2021/03/09 12:03:40;;;;;;;25.68;18.32;;;6.90;99.90;;;;;;1879134;74;21117;-73
2021/03/09 12:06:07;;;;;;;22.95;17.35;;;6.80;99.90;;;;;;1870076;76;21045;-75
2021/03/09 12:08:35;;;;;;;24.72;17.70;;;6.80;99.90;;;;;;1869678;75;21176;-76
2021/03/09 12:11:02;;;;;;;28.67;18.70;;;6.80;99.90;;;;;;1878247;74;21089;-75
2021/03/09 12:13:30;;;;;;;25.80;19.05;;;6.90;99.90;;;;;;1868975;75;21054;-74
2021/03/09 12:15:57;;;;;;;23.20;17.27;;;6.80;99.90;;;;;;1871829;76;21125;-75
2021/03/09 12:18:25;;;;;;;21.97;17.20;;;6.80;99.90;;;;;;1867047;75;21579;-75
2021/03/09 12:20:52;;;;;;;23.90;17.62;;;6.90;99.90;;;;;;1882284;74;21077;-75
2021/03/09 12:23:20;;;;;;;24.10;17.67;;;6.90;99.90;;;;;;1884908;74;21206;-75
2021/03/09 12:25:47;;;;;;;26.97;18.40;;;6.90;99.90;;;;;;1873496;75;21474;-75
2021/03/09 12:28:15;;;;;;;25.17;18.90;;;6.90;99.90;;;;;;1879145;74;21242;-74
2021/03/09 12:30:44;;;;;;;25.12;19.45;;;6.90;99.90;;;;;;1886676;74;21137;-75
2021/03/09 12:33:13;;;;;;;27.05;17.98;;;6.90;99.90;;;;;;1870715;75;21247;-75
2021/03/09 12:35:40;;;;;;;26.75;19.73;;;6.90;99.90;;;;;;1876367;75;21140;-75
2021/03/09 12:38:07;;;;;;;27.25;19.62;;;6.90;99.90;;;;;;1872755;74;21222;-74
2021/03/09 12:40:35;;;;;;;28.95;19.85;;;6.90;99.90;;;;;;1877476;76;21110;-74
2021/03/09 12:43:03;;;;;;;31.27;20.37;;;6.90;99.90;;;;;;1868948;76;21332;-74
2021/03/09 12:45:30;;;;;;;26.70;19.05;;;6.80;99.90;;;;;;1879206;74;21514;-74
2021/03/09 12:47:58;;;;;;;28.80;20.25;;;6.90;99.90;;;;;;1875926;74;21583;-75
2021/03/09 12:50:25;;;;;;;28.98;20.00;;;6.80;99.90;;;;;;1877708;74;21087;-74
2021/03/09 12:52:53;;;;;;;30.02;20.43;;;6.90;99.90;;;;;;1879607;74;21081;-74
2021/03/09 12:55:20;;;;;;;31.02;20.70;;;6.80;99.90;;;;;;1879901;74;21567;-74